sensor_id;sensor_type;location;lat;lon;timestamp;noise_LAeq;noise_LA_min;noise_LA_max;noise_LA01;noise_LA95
64642;Laerm;59936;51.490;5.436;2022-07-04T00:00:07;38.66;36.11;41.03;;
64642;Laerm;59936;51.490;5.436;2022-07-04T00:00:15;40.13;37.32;42.88;;
64642;Laerm;59936;51.490;5.436;2022-07-04T00:00:22;39.75;37.40;42.95;;
64642;Laerm;59936;51.490;5.436;2022-07-04T00:00:28;42.10;39.32;44.07;;
64642;Laerm;59936;51.490;5.436;2022-07-04T00:00:33;39.67;37.76;41.63;;
64642;Laerm;59936;51.490;5.436;2022-07-04T00:00:39;39.52;37.47;42.23;;
64642;Laerm;59936;51.490;5.436;2022-07-04T00:00:44;41.87;39.85;44.06;;
64642;Laerm;59936;51.490;5.436;2022-07-04T00:00:49;40.16;37.84;42.22;;
64642;Laerm;59936;51.490;5.436;2022-07-04T00:00:55;39.45;37.87;42.30;;
64642;Laerm;59936;51.490;5.436;2022-07-04T00:01:00;39.41;36.59;42.71;;
64642;Laerm;59936;51.490;5.436;2022-07-04T00:01:06;38.46;36.42;40.00;;
64642;Laerm;59936;51.490;5.436;2022-07-04T00:01:11;40.29;37.42;42.65;;
64642;Laerm;59936;51.490;5.436;2022-07-04T00:01:16;39.65;37.05;42.45;;
64642;Laerm;59936;51.490;5.436;2022-07-04T00:01:22;39.36;37.63;40.96;;
64642;Laerm;59936;51.490;5.436;2022-07-04T00:01:27;38.09;35.65;39.64;;
64642;Laerm;59936;51.490;5.436;2022-07-04T00:01:33;37.30;35.63;38.98;;
64642;Laerm;59936;51.490;5.436;2022-07-04T00:01:38;37.83;36.15;40.29;;
64642;Laerm;59936;51.490;5.436;2022-07-04T00:01:43;40.06;37.69;41.82;;
64642;Laerm;59936;51.490;5.436;2022-07-04T00:01:49;42.81;38.39;46.60;;
64642;Laerm;59936;51.490;5.436;2022-07-04T00:01:54;42.29;38.84;45.75;;
64642;Laerm;59936;51.490;5.436;2022-07-04T00:02:00;40.16;37.69;42.87;;
64642;Laerm;59936;51.490;5.436;2022-07-04T00:02:05;41.20;38.95;43.55;;
64642;Laerm;59936;51.490;5.436;2022-07-04T00:02:10;39.84;37.78;41.46;;
64642;Laerm;59936;51.490;5.436;2022-07-04T00:02:16;39.17;37.35;40.84;;
64642;Laerm;59936;51.490;5.436;2022-07-04T00:02:21;39.69;37.39;42.20;;
64642;Laerm;59936;51.490;5.436;2022-07-04T00:02:27;40.71;37.47;43.43;;
64642;Laerm;59936;51.490;5.436;2022-07-04T00:02:32;42.06;39.83;44.01;;
64642;Laerm;59936;51.490;5.436;2022-07-04T00:02:41;40.84;38.04;44.36;;
64642;Laerm;59936;51.490;5.436;2022-07-04T00:02:48;40.47;37.24;43.04;;
64642;Laerm;59936;51.490;5.436;2022-07-04T00:02:54;40.37;38.16;42.81;;
64642;Laerm;59936;51.490;5.436;2022-07-04T00:02:59;38.86;36.38;41.35;;
64642;Laerm;59936;51.490;5.436;2022-07-04T00:03:05;39.10;36.71;41.62;;
64642;Laerm;59936;51.490;5.436;2022-07-04T00:03:11;37.77;36.07;39.39;;
64642;Laerm;59936;51.490;5.436;2022-07-04T00:03:16;37.94;35.21;40.78;;
64642;Laerm;59936;51.490;5.436;2022-07-04T00:03:22;38.92;36.45;41.22;;
64642;Laerm;59936;51.490;5.436;2022-07-04T00:03:27;39.78;36.95;43.58;;
64642;Laerm;59936;51.490;5.436;2022-07-04T00:03:32;39.04;35.68;41.47;;
64642;Laerm;59936;51.490;5.436;2022-07-04T00:03:38;40.46;37.39;42.77;;
64642;Laerm;59936;51.490;5.436;2022-07-04T00:03:43;39.30;36.80;41.75;;
64642;Laerm;59936;51.490;5.436;2022-07-04T00:03:49;40.98;38.95;42.58;;
64642;Laerm;59936;51.490;5.436;2022-07-04T00:03:54;40.40;38.66;43.02;;
64642;Laerm;59936;51.490;5.436;2022-07-04T00:04:00;40.15;38.08;42.11;;
64642;Laerm;59936;51.490;5.436;2022-07-04T00:04:05;41.53;38.57;43.74;;
64642;Laerm;59936;51.490;5.436;2022-07-04T00:04:10;38.85;36.62;41.38;;
64642;Laerm;59936;51.490;5.436;2022-07-04T00:04:16;38.89;36.36;40.59;;
64642;Laerm;59936;51.490;5.436;2022-07-04T00:04:21;39.05;37.03;41.17;;
64642;Laerm;59936;51.490;5.436;2022-07-04T00:04:26;39.15;36.59;42.09;;
64642;Laerm;59936;51.490;5.436;2022-07-04T00:04:32;40.39;38.36;42.54;;
64642;Laerm;59936;51.490;5.436;2022-07-04T00:04:37;39.67;37.10;41.83;;
64642;Laerm;59936;51.490;5.436;2022-07-04T00:04:43;38.86;37.29;40.85;;
64642;Laerm;59936;51.490;5.436;2022-07-04T00:04:48;39.25;36.41;41.39;;
64642;Laerm;59936;51.490;5.436;2022-07-04T00:04:54;38.39;36.16;40.45;;
64642;Laerm;59936;51.490;5.436;2022-07-04T00:04:59;38.45;36.45;40.13;;
64642;Laerm;59936;51.490;5.436;2022-07-04T00:05:05;37.77;35.03;39.65;;
64642;Laerm;59936;51.490;5.436;2022-07-04T00:05:15;39.78;37.73;41.80;;
64642;Laerm;59936;51.490;5.436;2022-07-04T00:05:21;38.03;35.73;40.34;;
64642;Laerm;59936;51.490;5.436;2022-07-04T00:05:27;37.74;35.73;39.55;;
64642;Laerm;59936;51.490;5.436;2022-07-04T00:05:33;37.66;35.90;39.62;;
64642;Laerm;59936;51.490;5.436;2022-07-04T00:05:38;36.68;35.12;38.32;;
64642;Laerm;59936;51.490;5.436;2022-07-04T00:05:44;37.66;35.34;39.69;;
64642;Laerm;59936;51.490;5.436;2022-07-04T00:05:49;38.10;36.00;41.33;;
64642;Laerm;59936;51.490;5.436;2022-07-04T00:05:54;39.40;36.32;41.62;;
64642;Laerm;59936;51.490;5.436;2022-07-04T00:06:00;38.35;35.40;40.50;;
64642;Laerm;59936;51.490;5.436;2022-07-04T00:06:05;37.69;35.98;39.99;;
64642;Laerm;59936;51.490;5.436;2022-07-04T00:06:11;38.38;36.82;40.35;;
64642;Laerm;59936;51.490;5.436;2022-07-04T00:06:16;37.57;35.66;39.87;;
64642;Laerm;59936;51.490;5.436;2022-07-04T00:06:22;38.29;36.17;39.83;;
64642;Laerm;59936;51.490;5.436;2022-07-04T00:06:27;39.52;37.02;42.57;;
64642;Laerm;59936;51.490;5.436;2022-07-04T00:06:32;40.19;37.40;42.51;;
64642;Laerm;59936;51.490;5.436;2022-07-04T00:06:38;40.20;37.35;43.53;;
64642;Laerm;59936;51.490;5.436;2022-07-04T00:06:43;41.01;37.46;43.58;;
64642;Laerm;59936;51.490;5.436;2022-07-04T00:06:48;40.53;37.93;42.54;;
64642;Laerm;59936;51.490;5.436;2022-07-04T00:06:54;39.80;37.48;41.95;;
64642;Laerm;59936;51.490;5.436;2022-07-04T00:07:00;40.85;37.98;43.25;;
64642;Laerm;59936;51.490;5.436;2022-07-04T00:07:05;41.11;38.79;43.64;;
64642;Laerm;59936;51.490;5.436;2022-07-04T00:07:11;41.38;38.56;44.26;;
64642;Laerm;59936;51.490;5.436;2022-07-04T00:07:16;39.52;36.50;41.58;;
64642;Laerm;59936;51.490;5.436;2022-07-04T00:07:22;38.43;36.77;40.08;;
64642;Laerm;59936;51.490;5.436;2022-07-04T00:07:27;38.43;36.33;40.00;;
64642;Laerm;59936;51.490;5.436;2022-07-04T00:07:32;38.20;36.12;41.34;;
64642;Laerm;59936;51.490;5.436;2022-07-04T00:07:44;38.74;36.36;41.11;;
64642;Laerm;59936;51.490;5.436;2022-07-04T00:07:49;39.24;36.68;42.88;;
64642;Laerm;59936;51.490;5.436;2022-07-04T00:07:55;41.32;38.84;43.69;;
64642;Laerm;59936;51.490;5.436;2022-07-04T00:08:00;40.85;37.96;44.38;;
64642;Laerm;59936;51.490;5.436;2022-07-04T00:08:06;39.79;37.62;43.14;;
64642;Laerm;59936;51.490;5.436;2022-07-04T00:08:11;40.22;38.05;42.39;;
64642;Laerm;59936;51.490;5.436;2022-07-04T00:08:16;39.44;37.11;41.52;;
64642;Laerm;59936;51.490;5.436;2022-07-04T00:08:22;39.04;36.42;41.08;;
64642;Laerm;59936;51.490;5.436;2022-07-04T00:08:27;37.65;35.36;39.19;;
64642;Laerm;59936;51.490;5.436;2022-07-04T00:08:33;37.69;35.52;39.41;;
64642;Laerm;59936;51.490;5.436;2022-07-04T00:08:38;37.85;36.22;39.87;;
64642;Laerm;59936;51.490;5.436;2022-07-04T00:08:43;38.44;36.60;40.49;;
64642;Laerm;59936;51.490;5.436;2022-07-04T00:08:49;39.91;38.01;41.79;;
64642;Laerm;59936;51.490;5.436;2022-07-04T00:08:54;39.11;36.51;41.25;;
64642;Laerm;59936;51.490;5.436;2022-07-04T00:09:00;38.70;36.71;40.81;;
64642;Laerm;59936;51.490;5.436;2022-07-04T00:09:05;38.71;37.10;41.04;;
64642;Laerm;59936;51.490;5.436;2022-07-04T00:09:10;40.17;37.43;44.47;;
64642;Laerm;59936;51.490;5.436;2022-07-04T00:09:16;40.65;38.99;42.40;;
64642;Laerm;59936;51.490;5.436;2022-07-04T00:09:22;39.75;37.97;41.64;;
64642;Laerm;59936;51.490;5.436;2022-07-04T00:09:27;41.20;38.85;50.11;;
64642;Laerm;59936;51.490;5.436;2022-07-04T00:09:32;41.84;39.41;43.90;;
64642;Laerm;59936;51.490;5.436;2022-07-04T00:09:38;40.75;38.89;42.68;;
64642;Laerm;59936;51.490;5.436;2022-07-04T00:09:43;40.23;38.17;42.59;;
64642;Laerm;59936;51.490;5.436;2022-07-04T00:09:49;41.25;38.77;44.11;;
64642;Laerm;59936;51.490;5.436;2022-07-04T00:09:54;41.43;38.85;43.62;;
64642;Laerm;59936;51.490;5.436;2022-07-04T00:09:59;41.02;38.74;43.25;;
64642;Laerm;59936;51.490;5.436;2022-07-04T00:10:07;41.71;39.67;45.32;;
64642;Laerm;59936;51.490;5.436;2022-07-04T00:10:17;41.03;38.87;43.21;;
64642;Laerm;59936;51.490;5.436;2022-07-04T00:10:23;42.19;39.14;44.83;;
64642;Laerm;59936;51.490;5.436;2022-07-04T00:10:28;42.29;40.78;44.13;;
64642;Laerm;59936;51.490;5.436;2022-07-04T00:10:34;42.51;40.74;44.22;;
64642;Laerm;59936;51.490;5.436;2022-07-04T00:10:39;41.77;39.46;43.53;;
64642;Laerm;59936;51.490;5.436;2022-07-04T00:10:45;40.69;38.70;42.73;;
64642;Laerm;59936;51.490;5.436;2022-07-04T00:10:50;40.29;37.55;42.36;;
64642;Laerm;59936;51.490;5.436;2022-07-04T00:10:56;41.43;38.99;43.00;;
64642;Laerm;59936;51.490;5.436;2022-07-04T00:11:01;40.84;38.75;42.63;;
64642;Laerm;59936;51.490;5.436;2022-07-04T00:11:07;40.36;38.42;42.79;;
64642;Laerm;59936;51.490;5.436;2022-07-04T00:11:12;41.38;38.63;44.00;;
64642;Laerm;59936;51.490;5.436;2022-07-04T00:11:18;39.49;37.57;41.77;;
64642;Laerm;59936;51.490;5.436;2022-07-04T00:11:23;39.14;37.16;41.00;;
64642;Laerm;59936;51.490;5.436;2022-07-04T00:11:29;39.13;35.83;42.42;;
64642;Laerm;59936;51.490;5.436;2022-07-04T00:11:34;38.32;36.85;40.02;;
64642;Laerm;59936;51.490;5.436;2022-07-04T00:11:40;39.39;37.66;41.23;;
64642;Laerm;59936;51.490;5.436;2022-07-04T00:11:45;39.97;37.77;41.97;;
64642;Laerm;59936;51.490;5.436;2022-07-04T00:11:50;39.58;37.71;42.68;;
64642;Laerm;59936;51.490;5.436;2022-07-04T00:11:56;39.37;37.56;40.97;;
64642;Laerm;59936;51.490;5.436;2022-07-04T00:12:02;38.66;37.12;40.58;;
64642;Laerm;59936;51.490;5.436;2022-07-04T00:12:09;40.01;37.06;42.70;;
64642;Laerm;59936;51.490;5.436;2022-07-04T00:12:14;40.02;37.58;42.58;;
64642;Laerm;59936;51.490;5.436;2022-07-04T00:12:20;39.26;37.48;40.91;;
64642;Laerm;59936;51.490;5.436;2022-07-04T00:12:25;38.26;36.54;39.84;;
64642;Laerm;59936;51.490;5.436;2022-07-04T00:12:31;37.47;35.44;38.97;;
64642;Laerm;59936;51.490;5.436;2022-07-04T00:12:37;38.81;36.67;40.69;;
64642;Laerm;59936;51.490;5.436;2022-07-04T00:12:44;37.45;35.43;39.81;;
64642;Laerm;59936;51.490;5.436;2022-07-04T00:12:49;39.66;36.83;42.05;;
64642;Laerm;59936;51.490;5.436;2022-07-04T00:12:56;39.46;36.49;41.18;;
64642;Laerm;59936;51.490;5.436;2022-07-04T00:13:02;37.84;35.90;39.62;;
64642;Laerm;59936;51.490;5.436;2022-07-04T00:13:07;39.13;36.59;42.39;;
64642;Laerm;59936;51.490;5.436;2022-07-04T00:13:13;40.00;38.27;42.73;;
64642;Laerm;59936;51.490;5.436;2022-07-04T00:13:18;40.21;37.80;42.06;;
64642;Laerm;59936;51.490;5.436;2022-07-04T00:13:23;40.58;37.85;42.82;;
64642;Laerm;59936;51.490;5.436;2022-07-04T00:13:29;40.48;38.23;43.13;;
64642;Laerm;59936;51.490;5.436;2022-07-04T00:13:35;39.80;38.18;41.23;;
64642;Laerm;59936;51.490;5.436;2022-07-04T00:13:40;38.97;36.31;41.48;;
64642;Laerm;59936;51.490;5.436;2022-07-04T00:13:46;37.61;35.81;39.36;;
64642;Laerm;59936;51.490;5.436;2022-07-04T00:13:51;37.48;35.50;39.62;;
64642;Laerm;59936;51.490;5.436;2022-07-04T00:13:56;38.76;36.20;41.82;;
64642;Laerm;59936;51.490;5.436;2022-07-04T00:14:02;38.30;35.93;41.33;;
64642;Laerm;59936;51.490;5.436;2022-07-04T00:14:07;39.11;36.61;40.93;;
64642;Laerm;59936;51.490;5.436;2022-07-04T00:14:13;38.29;36.21;40.31;;
64642;Laerm;59936;51.490;5.436;2022-07-04T00:14:18;38.36;36.46;40.59;;
64642;Laerm;59936;51.490;5.436;2022-07-04T00:14:24;37.80;35.85;40.28;;
64642;Laerm;59936;51.490;5.436;2022-07-04T00:14:29;37.03;34.76;38.95;;
64642;Laerm;59936;51.490;5.436;2022-07-04T00:14:35;36.58;34.74;38.22;;
64642;Laerm;59936;51.490;5.436;2022-07-04T00:14:40;36.41;34.61;38.03;;
64642;Laerm;59936;51.490;5.436;2022-07-04T00:14:46;37.29;35.58;38.86;;
64642;Laerm;59936;51.490;5.436;2022-07-04T00:14:51;36.89;34.55;38.57;;
64642;Laerm;59936;51.490;5.436;2022-07-04T00:14:56;37.94;35.67;40.37;;
64642;Laerm;59936;51.490;5.436;2022-07-04T00:15:04;38.11;36.42;39.70;;
64642;Laerm;59936;51.490;5.436;2022-07-04T00:15:12;38.69;36.31;41.60;;
64642;Laerm;59936;51.490;5.436;2022-07-04T00:15:18;37.53;34.94;41.58;;
64642;Laerm;59936;51.490;5.436;2022-07-04T00:15:24;35.84;33.72;37.60;;
64642;Laerm;59936;51.490;5.436;2022-07-04T00:15:29;36.38;34.76;38.12;;
64642;Laerm;59936;51.490;5.436;2022-07-04T00:15:35;37.18;35.39;39.12;;
64642;Laerm;59936;51.490;5.436;2022-07-04T00:15:40;38.04;36.12;40.28;;
64642;Laerm;59936;51.490;5.436;2022-07-04T00:15:45;38.60;36.51;41.55;;
64642;Laerm;59936;51.490;5.436;2022-07-04T00:15:51;38.76;35.53;40.82;;
64642;Laerm;59936;51.490;5.436;2022-07-04T00:15:56;38.00;35.79;41.38;;
64642;Laerm;59936;51.490;5.436;2022-07-04T00:16:02;38.02;35.86;40.29;;
64642;Laerm;59936;51.490;5.436;2022-07-04T00:16:07;38.03;35.81;41.19;;
64642;Laerm;59936;51.490;5.436;2022-07-04T00:16:13;36.93;35.06;39.28;;
64642;Laerm;59936;51.490;5.436;2022-07-04T00:16:18;38.71;36.29;40.80;;
64642;Laerm;59936;51.490;5.436;2022-07-04T00:16:24;40.05;38.17;41.64;;
64642;Laerm;59936;51.490;5.436;2022-07-04T00:16:29;40.17;38.30;42.20;;
64642;Laerm;59936;51.490;5.436;2022-07-04T00:16:34;39.88;37.34;42.73;;
64642;Laerm;59936;51.490;5.436;2022-07-04T00:16:40;37.90;35.85;39.65;;
64642;Laerm;59936;51.490;5.436;2022-07-04T00:16:45;37.61;35.32;40.54;;
64642;Laerm;59936;51.490;5.436;2022-07-04T00:16:51;40.53;38.18;43.66;;
64642;Laerm;59936;51.490;5.436;2022-07-04T00:16:56;40.95;38.29;42.55;;
64642;Laerm;59936;51.490;5.436;2022-07-04T00:17:02;40.66;37.95;42.44;;
64642;Laerm;59936;51.490;5.436;2022-07-04T00:17:07;40.59;38.44;42.55;;
64642;Laerm;59936;51.490;5.436;2022-07-04T00:17:13;40.59;38.59;43.08;;
64642;Laerm;59936;51.490;5.436;2022-07-04T00:17:18;40.67;39.04;42.34;;
64642;Laerm;59936;51.490;5.436;2022-07-04T00:17:24;40.31;37.75;42.42;;
64642;Laerm;59936;51.490;5.436;2022-07-04T00:17:29;39.27;37.03;41.28;;
64642;Laerm;59936;51.490;5.436;2022-07-04T00:17:35;39.02;35.59;41.69;;
64642;Laerm;59936;51.490;5.436;2022-07-04T00:17:41;39.68;37.11;41.89;;
64642;Laerm;59936;51.490;5.436;2022-07-04T00:17:47;40.63;37.59;43.02;;
64642;Laerm;59936;51.490;5.436;2022-07-04T00:17:52;39.26;37.38;40.77;;
64642;Laerm;59936;51.490;5.436;2022-07-04T00:17:58;38.08;35.76;40.52;;
64642;Laerm;59936;51.490;5.436;2022-07-04T00:18:03;37.34;35.47;38.86;;
64642;Laerm;59936;51.490;5.436;2022-07-04T00:18:09;37.21;35.53;38.69;;
64642;Laerm;59936;51.490;5.436;2022-07-04T00:18:14;38.48;36.54;41.19;;
64642;Laerm;59936;51.490;5.436;2022-07-04T00:18:20;37.29;35.66;38.71;;
64642;Laerm;59936;51.490;5.436;2022-07-04T00:18:26;37.64;36.15;39.43;;
64642;Laerm;59936;51.490;5.436;2022-07-04T00:18:31;37.80;35.41;39.57;;
64642;Laerm;59936;51.490;5.436;2022-07-04T00:18:37;38.83;36.17;40.70;;
64642;Laerm;59936;51.490;5.436;2022-07-04T00:18:44;38.28;36.42;40.28;;
64642;Laerm;59936;51.490;5.436;2022-07-04T00:18:49;38.89;36.04;41.21;;
64642;Laerm;59936;51.490;5.436;2022-07-04T00:18:55;38.53;35.72;40.62;;
64642;Laerm;59936;51.490;5.436;2022-07-04T00:19:01;38.63;36.54;41.28;;
64642;Laerm;59936;51.490;5.436;2022-07-04T00:19:06;38.28;36.62;40.53;;
64642;Laerm;59936;51.490;5.436;2022-07-04T00:19:12;37.84;36.23;39.75;;
64642;Laerm;59936;51.490;5.436;2022-07-04T00:19:17;38.52;36.33;40.20;;
64642;Laerm;59936;51.490;5.436;2022-07-04T00:19:23;37.77;35.13;40.28;;
64642;Laerm;59936;51.490;5.436;2022-07-04T00:19:28;37.64;36.09;39.06;;
64642;Laerm;59936;51.490;5.436;2022-07-04T00:19:34;38.70;36.80;41.02;;
64642;Laerm;59936;51.490;5.436;2022-07-04T00:19:39;39.89;36.97;42.67;;
64642;Laerm;59936;51.490;5.436;2022-07-04T00:19:45;39.23;37.73;41.62;;
64642;Laerm;59936;51.490;5.436;2022-07-04T00:19:50;39.67;38.07;41.85;;
64642;Laerm;59936;51.490;5.436;2022-07-04T00:19:56;38.88;36.41;41.83;;
64642;Laerm;59936;51.490;5.436;2022-07-04T00:20:04;38.66;36.04;40.77;;
64642;Laerm;59936;51.490;5.436;2022-07-04T00:20:10;37.39;35.10;39.33;;
64642;Laerm;59936;51.490;5.436;2022-07-04T00:20:16;38.07;35.43;40.37;;
64642;Laerm;59936;51.490;5.436;2022-07-04T00:20:22;37.90;35.54;42.07;;
64642;Laerm;59936;51.490;5.436;2022-07-04T00:20:27;36.94;35.05;38.60;;
64642;Laerm;59936;51.490;5.436;2022-07-04T00:20:33;36.83;35.31;38.38;;
64642;Laerm;59936;51.490;5.436;2022-07-04T00:20:38;37.67;35.63;39.77;;
64642;Laerm;59936;51.490;5.436;2022-07-04T00:20:44;37.53;35.25;39.94;;
64642;Laerm;59936;51.490;5.436;2022-07-04T00:20:49;36.40;34.04;38.16;;
64642;Laerm;59936;51.490;5.436;2022-07-04T00:20:54;36.69;34.39;39.82;;
64642;Laerm;59936;51.490;5.436;2022-07-04T00:21:00;37.70;34.75;40.99;;
64642;Laerm;59936;51.490;5.436;2022-07-04T00:21:05;36.43;34.79;38.84;;
64642;Laerm;59936;51.490;5.436;2022-07-04T00:21:11;37.04;34.80;39.27;;
64642;Laerm;59936;51.490;5.436;2022-07-04T00:21:16;37.73;35.55;39.80;;
64642;Laerm;59936;51.490;5.436;2022-07-04T00:21:21;37.66;35.89;39.48;;
64642;Laerm;59936;51.490;5.436;2022-07-04T00:21:27;37.08;35.49;38.39;;
64642;Laerm;59936;51.490;5.436;2022-07-04T00:21:32;37.15;35.51;39.36;;
64642;Laerm;59936;51.490;5.436;2022-07-04T00:21:38;37.53;35.67;39.16;;
64642;Laerm;59936;51.490;5.436;2022-07-04T00:21:43;37.27;35.23;38.89;;
64642;Laerm;59936;51.490;5.436;2022-07-04T00:21:49;37.70;35.46;39.52;;
64642;Laerm;59936;51.490;5.436;2022-07-04T00:21:54;37.60;35.66;40.16;;
64642;Laerm;59936;51.490;5.436;2022-07-04T00:22:00;37.80;35.47;40.23;;
64642;Laerm;59936;51.490;5.436;2022-07-04T00:22:05;37.96;35.72;40.40;;
64642;Laerm;59936;51.490;5.436;2022-07-04T00:22:10;38.13;35.61;40.45;;
64642;Laerm;59936;51.490;5.436;2022-07-04T00:22:16;38.39;36.51;41.05;;
64642;Laerm;59936;51.490;5.436;2022-07-04T00:22:21;37.36;35.38;39.24;;
64642;Laerm;59936;51.490;5.436;2022-07-04T00:22:27;38.14;36.04;40.33;;
64642;Laerm;59936;51.490;5.436;2022-07-04T00:22:33;38.54;36.70;40.37;;
64642;Laerm;59936;51.490;5.436;2022-07-04T00:22:38;38.38;36.60;40.45;;
64642;Laerm;59936;51.490;5.436;2022-07-04T00:22:44;39.18;37.31;41.98;;
64642;Laerm;59936;51.490;5.436;2022-07-04T00:22:50;38.13;36.35;40.35;;
64642;Laerm;59936;51.490;5.436;2022-07-04T00:22:55;38.63;36.01;41.52;;
64642;Laerm;59936;51.490;5.436;2022-07-04T00:23:01;37.31;35.03;39.15;;
64642;Laerm;59936;51.490;5.436;2022-07-04T00:23:06;36.65;34.89;38.81;;
64642;Laerm;59936;51.490;5.436;2022-07-04T00:23:11;35.68;34.04;37.17;;
64642;Laerm;59936;51.490;5.436;2022-07-04T00:23:17;36.19;34.45;37.89;;
64642;Laerm;59936;51.490;5.436;2022-07-04T00:23:22;35.87;34.19;38.67;;
64642;Laerm;59936;51.490;5.436;2022-07-04T00:23:27;36.49;34.78;38.70;;
64642;Laerm;59936;51.490;5.436;2022-07-04T00:23:33;37.46;35.96;39.40;;
64642;Laerm;59936;51.490;5.436;2022-07-04T00:23:38;37.67;35.14;39.77;;
64642;Laerm;59936;51.490;5.436;2022-07-04T00:23:44;36.97;35.12;39.22;;
64642;Laerm;59936;51.490;5.436;2022-07-04T00:23:49;37.14;34.75;39.47;;
64642;Laerm;59936;51.490;5.436;2022-07-04T00:23:55;38.05;35.96;40.80;;
64642;Laerm;59936;51.490;5.436;2022-07-04T00:24:01;37.92;35.26;40.38;;
64642;Laerm;59936;51.490;5.436;2022-07-04T00:24:06;40.13;37.61;42.08;;
64642;Laerm;59936;51.490;5.436;2022-07-04T00:24:11;37.61;34.89;41.02;;
64642;Laerm;59936;51.490;5.436;2022-07-04T00:24:17;36.18;34.43;37.93;;
64642;Laerm;59936;51.490;5.436;2022-07-04T00:24:22;36.91;35.16;40.05;;
64642;Laerm;59936;51.490;5.436;2022-07-04T00:24:28;36.74;35.09;38.31;;
64642;Laerm;59936;51.490;5.436;2022-07-04T00:24:33;37.59;35.02;40.38;;
64642;Laerm;59936;51.490;5.436;2022-07-04T00:24:39;38.24;35.98;40.22;;
64642;Laerm;59936;51.490;5.436;2022-07-04T00:24:44;37.85;35.64;39.83;;
64642;Laerm;59936;51.490;5.436;2022-07-04T00:24:50;36.85;35.29;39.28;;
64642;Laerm;59936;51.490;5.436;2022-07-04T00:24:55;39.52;36.47;43.31;;
64642;Laerm;59936;51.490;5.436;2022-07-04T00:25:01;38.81;35.71;42.83;;
64642;Laerm;59936;51.490;5.436;2022-07-04T00:25:07;39.82;35.31;43.52;;
64642;Laerm;59936;51.490;5.436;2022-07-04T00:25:13;36.71;35.01;38.57;;
64642;Laerm;59936;51.490;5.436;2022-07-04T00:25:18;37.00;34.44;39.14;;
64642;Laerm;59936;51.490;5.436;2022-07-04T00:25:23;37.69;36.02;39.15;;
64642;Laerm;59936;51.490;5.436;2022-07-04T00:25:29;37.61;35.57;40.48;;
64642;Laerm;59936;51.490;5.436;2022-07-04T00:25:34;37.82;35.64;40.20;;
64642;Laerm;59936;51.490;5.436;2022-07-04T00:25:40;35.91;33.91;37.73;;
64642;Laerm;59936;51.490;5.436;2022-07-04T00:25:45;37.06;34.39;39.83;;
64642;Laerm;59936;51.490;5.436;2022-07-04T00:25:51;37.28;35.07;40.57;;
64642;Laerm;59936;51.490;5.436;2022-07-04T00:25:57;37.62;35.12;40.48;;
64642;Laerm;59936;51.490;5.436;2022-07-04T00:26:02;36.57;34.46;38.95;;
64642;Laerm;59936;51.490;5.436;2022-07-04T00:26:08;36.69;35.22;38.85;;
64642;Laerm;59936;51.490;5.436;2022-07-04T00:26:13;37.97;35.92;40.48;;
64642;Laerm;59936;51.490;5.436;2022-07-04T00:26:18;38.97;36.78;40.88;;
64642;Laerm;59936;51.490;5.436;2022-07-04T00:26:24;38.77;36.81;41.71;;
64642;Laerm;59936;51.490;5.436;2022-07-04T00:26:30;39.80;37.35;41.58;;
64642;Laerm;59936;51.490;5.436;2022-07-04T00:26:35;37.90;35.93;39.76;;
64642;Laerm;59936;51.490;5.436;2022-07-04T00:26:40;37.08;35.22;39.06;;
64642;Laerm;59936;51.490;5.436;2022-07-04T00:26:46;38.07;35.21;39.97;;
64642;Laerm;59936;51.490;5.436;2022-07-04T00:26:51;38.36;36.07;39.69;;
64642;Laerm;59936;51.490;5.436;2022-07-04T00:26:56;36.75;34.44;39.31;;
64642;Laerm;59936;51.490;5.436;2022-07-04T00:27:02;37.20;34.42;39.12;;
64642;Laerm;59936;51.490;5.436;2022-07-04T00:27:07;38.22;35.78;39.97;;
64642;Laerm;59936;51.490;5.436;2022-07-04T00:27:13;38.10;36.49;39.89;;
64642;Laerm;59936;51.490;5.436;2022-07-04T00:27:18;39.55;36.30;43.08;;
64642;Laerm;59936;51.490;5.436;2022-07-04T00:27:24;36.58;34.85;38.41;;
64642;Laerm;59936;51.490;5.436;2022-07-04T00:27:30;36.19;33.87;37.89;;
64642;Laerm;59936;51.490;5.436;2022-07-04T00:27:35;35.80;33.76;37.87;;
64642;Laerm;59936;51.490;5.436;2022-07-04T00:27:41;35.33;33.23;37.21;;
64642;Laerm;59936;51.490;5.436;2022-07-04T00:27:46;35.06;33.57;36.35;;
64642;Laerm;59936;51.490;5.436;2022-07-04T00:27:52;35.81;34.02;37.48;;
64642;Laerm;59936;51.490;5.436;2022-07-04T00:27:57;35.99;34.20;37.35;;
64642;Laerm;59936;51.490;5.436;2022-07-04T00:28:03;36.74;35.22;38.20;;
64642;Laerm;59936;51.490;5.436;2022-07-04T00:28:08;37.54;35.66;39.88;;
64642;Laerm;59936;51.490;5.436;2022-07-04T00:28:13;38.07;35.97;40.46;;
64642;Laerm;59936;51.490;5.436;2022-07-04T00:28:19;35.92;32.99;37.65;;
64642;Laerm;59936;51.490;5.436;2022-07-04T00:28:24;35.95;33.89;37.60;;
64642;Laerm;59936;51.490;5.436;2022-07-04T00:28:29;36.38;34.38;39.73;;
64642;Laerm;59936;51.490;5.436;2022-07-04T00:28:35;35.33;33.20;36.95;;
64642;Laerm;59936;51.490;5.436;2022-07-04T00:28:40;34.76;32.97;36.21;;
64642;Laerm;59936;51.490;5.436;2022-07-04T00:28:46;36.22;33.88;38.40;;
64642;Laerm;59936;51.490;5.436;2022-07-04T00:28:51;36.75;33.87;40.01;;
64642;Laerm;59936;51.490;5.436;2022-07-04T00:28:56;37.50;35.17;38.96;;
64642;Laerm;59936;51.490;5.436;2022-07-04T00:29:02;37.87;36.19;39.96;;
64642;Laerm;59936;51.490;5.436;2022-07-04T00:29:07;38.64;36.41;40.53;;
64642;Laerm;59936;51.490;5.436;2022-07-04T00:29:13;37.33;35.76;39.04;;
64642;Laerm;59936;51.490;5.436;2022-07-04T00:29:19;37.01;34.91;38.73;;
64642;Laerm;59936;51.490;5.436;2022-07-04T00:29:24;37.76;34.59;41.18;;
64642;Laerm;59936;51.490;5.436;2022-07-04T00:29:30;36.31;34.72;38.01;;
64642;Laerm;59936;51.490;5.436;2022-07-04T00:29:35;37.43;34.88;40.13;;
64642;Laerm;59936;51.490;5.436;2022-07-04T00:29:41;37.19;35.35;38.75;;
64642;Laerm;59936;51.490;5.436;2022-07-04T00:29:46;37.82;35.50;40.50;;
64642;Laerm;59936;51.490;5.436;2022-07-04T00:29:52;39.12;36.80;41.15;;
64642;Laerm;59936;51.490;5.436;2022-07-04T00:29:58;38.11;35.64;40.80;;
64642;Laerm;59936;51.490;5.436;2022-07-04T00:30:04;39.45;36.90;41.83;;
64642;Laerm;59936;51.490;5.436;2022-07-04T00:30:10;37.50;35.47;39.64;;
64642;Laerm;59936;51.490;5.436;2022-07-04T00:30:15;37.64;35.45;40.30;;
64642;Laerm;59936;51.490;5.436;2022-07-04T00:30:21;38.50;35.57;40.92;;
64642;Laerm;59936;51.490;5.436;2022-07-04T00:30:26;36.63;34.25;39.07;;
64642;Laerm;59936;51.490;5.436;2022-07-04T00:30:34;35.98;34.03;37.42;;
64642;Laerm;59936;51.490;5.436;2022-07-04T00:30:39;36.14;34.35;37.80;;
64642;Laerm;59936;51.490;5.436;2022-07-04T00:30:44;37.46;35.42;40.07;;
64642;Laerm;59936;51.490;5.436;2022-07-04T00:30:50;36.91;35.27;38.13;;
64642;Laerm;59936;51.490;5.436;2022-07-04T00:30:55;36.88;35.28;38.45;;
64642;Laerm;59936;51.490;5.436;2022-07-04T00:31:00;37.75;35.02;40.26;;
64642;Laerm;59936;51.490;5.436;2022-07-04T00:31:06;36.52;34.38;38.23;;
64642;Laerm;59936;51.490;5.436;2022-07-04T00:31:12;36.11;34.55;37.93;;
64642;Laerm;59936;51.490;5.436;2022-07-04T00:31:17;37.06;35.32;41.46;;
64642;Laerm;59936;51.490;5.436;2022-07-04T00:31:23;36.16;34.73;37.70;;
64642;Laerm;59936;51.490;5.436;2022-07-04T00:31:28;36.61;34.24;38.13;;